sensor_id;sensor_type;location;lat;lon;timestamp;P1;durP1;ratioP1;P2;durP2;ratioP2
47760;SDS011;33524;55.434;38.520;2023-02-28T00:00:06;12.55;;;7.20;;
47760;SDS011;33524;55.434;38.520;2023-02-28T00:02:40;12.75;;;6.55;;
47760;SDS011;33524;55.434;38.520;2023-02-28T00:05:11;12.13;;;6.40;;
47760;SDS011;33524;55.434;38.520;2023-02-28T00:07:42;13.88;;;8.02;;
47760;SDS011;33524;55.434;38.520;2023-02-28T00:10:14;12.02;;;7.72;;
47760;SDS011;33524;55.434;38.520;2023-02-28T00:12:49;11.55;;;7.45;;
47760;SDS011;33524;55.434;38.520;2023-02-28T00:15:20;18.50;;;8.30;;
47760;SDS011;33524;55.434;38.520;2023-02-28T00:17:52;13.68;;;6.47;;
47760;SDS011;33524;55.434;38.520;2023-02-28T00:20:22;12.50;;;7.65;;
47760;SDS011;33524;55.434;38.520;2023-02-28T00:22:52;12.85;;;7.12;;
47760;SDS011;33524;55.434;38.520;2023-02-28T00:25:23;11.90;;;5.60;;
47760;SDS011;33524;55.434;38.520;2023-02-28T00:27:54;12.75;;;7.15;;
47760;SDS011;33524;55.434;38.520;2023-02-28T00:30:25;14.25;;;7.95;;
47760;SDS011;33524;55.434;38.520;2023-02-28T00:32:55;12.20;;;7.50;;
47760;SDS011;33524;55.434;38.520;2023-02-28T00:35:25;13.00;;;8.30;;
47760;SDS011;33524;55.434;38.520;2023-02-28T00:37:54;13.85;;;7.95;;
47760;SDS011;33524;55.434;38.520;2023-02-28T00:40:24;12.93;;;7.10;;
47760;SDS011;33524;55.434;38.520;2023-02-28T00:42:54;11.77;;;7.10;;
47760;SDS011;33524;55.434;38.520;2023-02-28T00:45:24;15.02;;;8.23;;
47760;SDS011;33524;55.434;38.520;2023-02-28T00:47:54;10.45;;;7.12;;
47760;SDS011;33524;55.434;38.520;2023-02-28T00:50:24;13.07;;;6.10;;
47760;SDS011;33524;55.434;38.520;2023-02-28T00:52:53;12.77;;;7.32;;
47760;SDS011;33524;55.434;38.520;2023-02-28T00:55:27;10.18;;;6.53;;
47760;SDS011;33524;55.434;38.520;2023-02-28T00:57:56;12.80;;;6.62;;
47760;SDS011;33524;55.434;38.520;2023-02-28T01:00:26;11.02;;;6.15;;
47760;SDS011;33524;55.434;38.520;2023-02-28T01:02:56;11.80;;;7.75;;
47760;SDS011;33524;55.434;38.520;2023-02-28T01:05:25;11.40;;;7.32;;
47760;SDS011;33524;55.434;38.520;2023-02-28T01:07:55;10.63;;;5.47;;
47760;SDS011;33524;55.434;38.520;2023-02-28T01:10:24;9.52;;;5.75;;
47760;SDS011;33524;55.434;38.520;2023-02-28T01:12:55;11.12;;;6.78;;
47760;SDS011;33524;55.434;38.520;2023-02-28T01:15:24;10.20;;;6.07;;
47760;SDS011;33524;55.434;38.520;2023-02-28T01:17:53;9.52;;;6.37;;
47760;SDS011;33524;55.434;38.520;2023-02-28T01:20:25;7.53;;;4.43;;
47760;SDS011;33524;55.434;38.520;2023-02-28T01:22:55;11.73;;;6.20;;
47760;SDS011;33524;55.434;38.520;2023-02-28T01:25:24;10.65;;;6.97;;
47760;SDS011;33524;55.434;38.520;2023-02-28T01:27:54;11.88;;;6.80;;
47760;SDS011;33524;55.434;38.520;2023-02-28T01:30:26;10.00;;;5.80;;
47760;SDS011;33524;55.434;38.520;2023-02-28T01:32:56;8.95;;;5.93;;
47760;SDS011;33524;55.434;38.520;2023-02-28T01:35:25;9.82;;;5.68;;
47760;SDS011;33524;55.434;38.520;2023-02-28T01:37:55;9.48;;;5.82;;
47760;SDS011;33524;55.434;38.520;2023-02-28T01:40:40;7.53;;;5.07;;
47760;SDS011;33524;55.434;38.520;2023-02-28T01:43:16;9.30;;;5.28;;
47760;SDS011;33524;55.434;38.520;2023-02-28T01:45:51;9.20;;;5.15;;
47760;SDS011;33524;55.434;38.520;2023-02-28T01:48:29;11.98;;;6.28;;
47760;SDS011;33524;55.434;38.520;2023-02-28T01:51:04;11.57;;;7.57;;
47760;SDS011;33524;55.434;38.520;2023-02-28T01:53:39;10.35;;;6.82;;
47760;SDS011;33524;55.434;38.520;2023-02-28T01:56:17;10.77;;;6.68;;
47760;SDS011;33524;55.434;38.520;2023-02-28T01:58:52;12.10;;;6.70;;
47760;SDS011;33524;55.434;38.520;2023-02-28T02:01:23;12.25;;;6.90;;
47760;SDS011;33524;55.434;38.520;2023-02-28T02:03:57;11.43;;;6.07;;
47760;SDS011;33524;55.434;38.520;2023-02-28T02:06:40;11.35;;;6.37;;
47760;SDS011;33524;55.434;38.520;2023-02-28T02:09:13;13.52;;;7.32;;
47760;SDS011;33524;55.434;38.520;2023-02-28T02:11:43;12.27;;;6.75;;
47760;SDS011;33524;55.434;38.520;2023-02-28T02:17:10;12.45;;;6.62;;
47760;SDS011;33524;55.434;38.520;2023-02-28T02:20:02;13.52;;;7.57;;
47760;SDS011;33524;55.434;38.520;2023-02-28T02:22:50;13.35;;;7.80;;
47760;SDS011;33524;55.434;38.520;2023-02-28T02:25:47;14.25;;;9.80;;
47760;SDS011;33524;55.434;38.520;2023-02-28T02:28:29;15.48;;;9.20;;
47760;SDS011;33524;55.434;38.520;2023-02-28T02:31:18;13.77;;;7.10;;
47760;SDS011;33524;55.434;38.520;2023-02-28T02:36:53;12.45;;;7.10;;
47760;SDS011;33524;55.434;38.520;2023-02-28T02:39:52;10.57;;;6.97;;
47760;SDS011;33524;55.434;38.520;2023-02-28T02:42:33;11.52;;;6.87;;
47760;SDS011;33524;55.434;38.520;2023-02-28T02:45:34;12.27;;;7.57;;
47760;SDS011;33524;55.434;38.520;2023-02-28T02:48:12;15.50;;;7.93;;
47760;SDS011;33524;55.434;38.520;2023-02-28T02:50:46;8.82;;;5.82;;
47760;SDS011;33524;55.434;38.520;2023-02-28T02:53:21;13.60;;;7.22;;
47760;SDS011;33524;55.434;38.520;2023-02-28T02:56:08;13.80;;;8.90;;
47760;SDS011;33524;55.434;38.520;2023-02-28T02:58:41;13.40;;;6.90;;
47760;SDS011;33524;55.434;38.520;2023-02-28T03:01:15;12.90;;;7.72;;
47760;SDS011;33524;55.434;38.520;2023-02-28T03:03:57;11.45;;;7.20;;
47760;SDS011;33524;55.434;38.520;2023-02-28T03:06:31;13.52;;;7.80;;
47760;SDS011;33524;55.434;38.520;2023-02-28T03:09:04;10.55;;;6.25;;
47760;SDS011;33524;55.434;38.520;2023-02-28T03:11:34;12.57;;;6.85;;
47760;SDS011;33524;55.434;38.520;2023-02-28T03:17:00;9.95;;;6.03;;
47760;SDS011;33524;55.434;38.520;2023-02-28T03:23:09;12.37;;;7.22;;
47760;SDS011;33524;55.434;38.520;2023-02-28T03:26:39;10.13;;;5.78;;
47760;SDS011;33524;55.434;38.520;2023-02-28T03:28:33;18.05;;;8.77;;
47760;SDS011;33524;55.434;38.520;2023-02-28T03:31:37;14.95;;;8.35;;
47760;SDS011;33524;55.434;38.520;2023-02-28T03:34:13;14.40;;;8.80;;
47760;SDS011;33524;55.434;38.520;2023-02-28T03:36:49;12.63;;;6.72;;
47760;SDS011;33524;55.434;38.520;2023-02-28T03:39:24;9.93;;;6.15;;
47760;SDS011;33524;55.434;38.520;2023-02-28T03:42:02;13.52;;;7.10;;
47760;SDS011;33524;55.434;38.520;2023-02-28T03:44:46;10.52;;;6.28;;
47760;SDS011;33524;55.434;38.520;2023-02-28T03:47:52;10.60;;;5.72;;
47760;SDS011;33524;55.434;38.520;2023-02-28T03:50:18;13.57;;;6.35;;
47760;SDS011;33524;55.434;38.520;2023-02-28T03:52:57;9.70;;;6.10;;
47760;SDS011;33524;55.434;38.520;2023-02-28T03:55:34;10.48;;;6.78;;
47760;SDS011;33524;55.434;38.520;2023-02-28T03:58:20;11.63;;;6.20;;
47760;SDS011;33524;55.434;38.520;2023-02-28T04:01:12;12.45;;;7.35;;
47760;SDS011;33524;55.434;38.520;2023-02-28T04:03:47;11.77;;;7.15;;
47760;SDS011;33524;55.434;38.520;2023-02-28T04:06:20;13.07;;;6.55;;
47760;SDS011;33524;55.434;38.520;2023-02-28T04:08:53;10.80;;;4.95;;
47760;SDS011;33524;55.434;38.520;2023-02-28T04:11:24;13.30;;;5.57;;
47760;SDS011;33524;55.434;38.520;2023-02-28T04:14:07;8.43;;;4.68;;
47760;SDS011;33524;55.434;38.520;2023-02-28T04:16:39;12.90;;;7.40;;
47760;SDS011;33524;55.434;38.520;2023-02-28T04:19:11;8.55;;;5.18;;
47760;SDS011;33524;55.434;38.520;2023-02-28T04:21:44;9.73;;;6.60;;
47760;SDS011;33524;55.434;38.520;2023-02-28T04:24:18;10.38;;;6.00;;
47760;SDS011;33524;55.434;38.520;2023-02-28T04:26:51;9.88;;;6.18;;
47760;SDS011;33524;55.434;38.520;2023-02-28T04:31:55;10.68;;;6.55;;
47760;SDS011;33524;55.434;38.520;2023-02-28T04:34:28;10.27;;;5.93;;
47760;SDS011;33524;55.434;38.520;2023-02-28T04:36:58;6.47;;;4.47;;
47760;SDS011;33524;55.434;38.520;2023-02-28T04:39:41;11.35;;;5.97;;
47760;SDS011;33524;55.434;38.520;2023-02-28T04:42:11;8.63;;;5.03;;
47760;SDS011;33524;55.434;38.520;2023-02-28T04:44:42;9.73;;;6.78;;
47760;SDS011;33524;55.434;38.520;2023-02-28T04:47:12;9.48;;;5.72;;
47760;SDS011;33524;55.434;38.520;2023-02-28T04:49:41;10.52;;;6.37;;
47760;SDS011;33524;55.434;38.520;2023-02-28T04:52:11;8.50;;;5.87;;
47760;SDS011;33524;55.434;38.520;2023-02-28T04:54:41;11.23;;;6.30;;
47760;SDS011;33524;55.434;38.520;2023-02-28T04:57:11;10.05;;;6.22;;
47760;SDS011;33524;55.434;38.520;2023-02-28T04:59:41;9.60;;;5.40;;
47760;SDS011;33524;55.434;38.520;2023-02-28T05:02:10;7.07;;;4.20;;
47760;SDS011;33524;55.434;38.520;2023-02-28T05:04:40;12.60;;;5.22;;
47760;SDS011;33524;55.434;38.520;2023-02-28T05:07:10;13.70;;;6.72;;
47760;SDS011;33524;55.434;38.520;2023-02-28T05:09:39;10.63;;;5.07;;
47760;SDS011;33524;55.434;38.520;2023-02-28T05:12:09;8.15;;;5.35;;
47760;SDS011;33524;55.434;38.520;2023-02-28T05:14:39;6.75;;;4.70;;
47760;SDS011;33524;55.434;38.520;2023-02-28T05:17:09;6.28;;;4.50;;
47760;SDS011;33524;55.434;38.520;2023-02-28T05:19:39;10.48;;;5.78;;
47760;SDS011;33524;55.434;38.520;2023-02-28T05:22:13;8.80;;;4.80;;
47760;SDS011;33524;55.434;38.520;2023-02-28T05:24:45;8.77;;;5.37;;
47760;SDS011;33524;55.434;38.520;2023-02-28T05:27:15;6.55;;;5.05;;
47760;SDS011;33524;55.434;38.520;2023-02-28T05:29:45;7.75;;;4.90;;
47760;SDS011;33524;55.434;38.520;2023-02-28T05:32:15;7.03;;;4.80;;
47760;SDS011;33524;55.434;38.520;2023-02-28T05:34:44;6.25;;;4.35;;
47760;SDS011;33524;55.434;38.520;2023-02-28T05:37:15;9.18;;;5.62;;
47760;SDS011;33524;55.434;38.520;2023-02-28T05:39:44;10.75;;;4.53;;
47760;SDS011;33524;55.434;38.520;2023-02-28T05:42:14;5.32;;;3.80;;
47760;SDS011;33524;55.434;38.520;2023-02-28T05:44:44;7.57;;;4.05;;
47760;SDS011;33524;55.434;38.520;2023-02-28T05:47:15;5.57;;;3.75;;
47760;SDS011;33524;55.434;38.520;2023-02-28T05:49:45;8.98;;;4.65;;
47760;SDS011;33524;55.434;38.520;2023-02-28T05:52:15;6.45;;;3.90;;
47760;SDS011;33524;55.434;38.520;2023-02-28T05:54:46;12.43;;;6.15;;
47760;SDS011;33524;55.434;38.520;2023-02-28T05:57:16;9.23;;;5.62;;
47760;SDS011;33524;55.434;38.520;2023-02-28T05:59:51;8.88;;;5.00;;
47760;SDS011;33524;55.434;38.520;2023-02-28T06:02:22;9.18;;;4.97;;
47760;SDS011;33524;55.434;38.520;2023-02-28T06:04:52;8.75;;;4.40;;
47760;SDS011;33524;55.434;38.520;2023-02-28T06:07:22;12.70;;;6.75;;
47760;SDS011;33524;55.434;38.520;2023-02-28T06:09:51;10.10;;;5.87;;
47760;SDS011;33524;55.434;38.520;2023-02-28T06:12:21;7.28;;;5.07;;
47760;SDS011;33524;55.434;38.520;2023-02-28T06:14:51;5.70;;;3.75;;
47760;SDS011;33524;55.434;38.520;2023-02-28T06:17:21;7.80;;;4.87;;
47760;SDS011;33524;55.434;38.520;2023-02-28T06:19:50;6.93;;;4.78;;
47760;SDS011;33524;55.434;38.520;2023-02-28T06:22:20;6.90;;;4.68;;
47760;SDS011;33524;55.434;38.520;2023-02-28T06:24:58;6.00;;;4.07;;
47760;SDS011;33524;55.434;38.520;2023-02-28T06:27:28;6.20;;;4.03;;
47760;SDS011;33524;55.434;38.520;2023-02-28T06:29:59;7.70;;;3.78;;
47760;SDS011;33524;55.434;38.520;2023-02-28T06:32:30;6.55;;;4.32;;
47760;SDS011;33524;55.434;38.520;2023-02-28T06:35:00;8.23;;;4.62;;
47760;SDS011;33524;55.434;38.520;2023-02-28T06:37:31;9.07;;;5.20;;
47760;SDS011;33524;55.434;38.520;2023-02-28T06:40:02;7.97;;;3.83;;
47760;SDS011;33524;55.434;38.520;2023-02-28T06:42:34;7.47;;;5.72;;
47760;SDS011;33524;55.434;38.520;2023-02-28T06:45:09;7.32;;;4.80;;
47760;SDS011;33524;55.434;38.520;2023-02-28T06:47:48;8.68;;;3.72;;
47760;SDS011;33524;55.434;38.520;2023-02-28T06:50:21;7.82;;;3.47;;
47760;SDS011;33524;55.434;38.520;2023-02-28T06:52:53;7.85;;;4.65;;
47760;SDS011;33524;55.434;38.520;2023-02-28T06:55:24;8.68;;;3.97;;
47760;SDS011;33524;55.434;38.520;2023-02-28T06:57:57;9.38;;;4.00;;
47760;SDS011;33524;55.434;38.520;2023-02-28T07:00:28;7.85;;;4.35;;
47760;SDS011;33524;55.434;38.520;2023-02-28T07:02:57;7.78;;;3.87;;
47760;SDS011;33524;55.434;38.520;2023-02-28T07:05:26;5.80;;;3.28;;
47760;SDS011;33524;55.434;38.520;2023-02-28T07:08:00;6.97;;;4.20;;
47760;SDS011;33524;55.434;38.520;2023-02-28T07:10:30;7.12;;;3.62;;
47760;SDS011;33524;55.434;38.520;2023-02-28T07:13:00;5.20;;;2.95;;
47760;SDS011;33524;55.434;38.520;2023-02-28T07:15:29;7.35;;;3.55;;
47760;SDS011;33524;55.434;38.520;2023-02-28T07:18:03;7.22;;;4.62;;
47760;SDS011;33524;55.434;38.520;2023-02-28T07:20:33;6.37;;;4.43;;
47760;SDS011;33524;55.434;38.520;2023-02-28T07:23:03;9.40;;;4.30;;
47760;SDS011;33524;55.434;38.520;2023-02-28T07:25:34;5.80;;;3.33;;
47760;SDS011;33524;55.434;38.520;2023-02-28T07:28:05;5.15;;;3.50;;
47760;SDS011;33524;55.434;38.520;2023-02-28T07:30:35;4.95;;;3.33;;
47760;SDS011;33524;55.434;38.520;2023-02-28T07:33:05;7.05;;;5.05;;
47760;SDS011;33524;55.434;38.520;2023-02-28T07:35:34;4.35;;;2.42;;
47760;SDS011;33524;55.434;38.520;2023-02-28T07:38:04;4.65;;;3.00;;
47760;SDS011;33524;55.434;38.520;2023-02-28T07:40:37;5.43;;;2.97;;
47760;SDS011;33524;55.434;38.520;2023-02-28T07:43:06;5.25;;;3.25;;
47760;SDS011;33524;55.434;38.520;2023-02-28T07:45:36;5.68;;;3.35;;
47760;SDS011;33524;55.434;38.520;2023-02-28T07:48:06;6.25;;;3.22;;
47760;SDS011;33524;55.434;38.520;2023-02-28T07:50:38;3.45;;;2.67;;
47760;SDS011;33524;55.434;38.520;2023-02-28T07:53:08;5.75;;;3.10;;
47760;SDS011;33524;55.434;38.520;2023-02-28T07:55:37;4.07;;;2.50;;
47760;SDS011;33524;55.434;38.520;2023-02-28T07:58:08;4.70;;;2.95;;
47760;SDS011;33524;55.434;38.520;2023-02-28T08:00:38;4.80;;;2.60;;
47760;SDS011;33524;55.434;38.520;2023-02-28T08:03:10;4.40;;;2.28;;
47760;SDS011;33524;55.434;38.520;2023-02-28T08:05:41;6.22;;;4.32;;
47760;SDS011;33524;55.434;38.520;2023-02-28T08:08:11;4.90;;;3.37;;
47760;SDS011;33524;55.434;38.520;2023-02-28T08:10:41;5.78;;;4.00;;
47760;SDS011;33524;55.434;38.520;2023-02-28T08:13:11;4.22;;;2.95;;
47760;SDS011;33524;55.434;38.520;2023-02-28T08:15:41;4.55;;;3.28;;
47760;SDS011;33524;55.434;38.520;2023-02-28T08:18:11;6.60;;;4.07;;
47760;SDS011;33524;55.434;38.520;2023-02-28T08:20:42;7.75;;;5.03;;
47760;SDS011;33524;55.434;38.520;2023-02-28T08:23:11;7.30;;;3.50;;
47760;SDS011;33524;55.434;38.520;2023-02-28T08:25:40;5.37;;;2.75;;
47760;SDS011;33524;55.434;38.520;2023-02-28T08:28:10;8.65;;;4.20;;
47760;SDS011;33524;55.434;38.520;2023-02-28T08:30:40;8.30;;;3.78;;
47760;SDS011;33524;55.434;38.520;2023-02-28T08:33:10;6.78;;;3.60;;
47760;SDS011;33524;55.434;38.520;2023-02-28T08:35:41;3.95;;;2.72;;
47760;SDS011;33524;55.434;38.520;2023-02-28T08:38:10;5.18;;;3.45;;
47760;SDS011;33524;55.434;38.520;2023-02-28T08:40:40;5.80;;;2.78;;
47760;SDS011;33524;55.434;38.520;2023-02-28T08:43:13;5.82;;;4.10;;
47760;SDS011;33524;55.434;38.520;2023-02-28T08:45:43;6.72;;;3.80;;
47760;SDS011;33524;55.434;38.520;2023-02-28T08:48:13;6.78;;;3.35;;
47760;SDS011;33524;55.434;38.520;2023-02-28T08:51:17;6.93;;;3.70;;
47760;SDS011;33524;55.434;38.520;2023-02-28T08:53:37;8.27;;;4.75;;
47760;SDS011;33524;55.434;38.520;2023-02-28T08:56:09;7.30;;;4.72;;
47760;SDS011;33524;55.434;38.520;2023-02-28T08:58:40;7.35;;;3.42;;
47760;SDS011;33524;55.434;38.520;2023-02-28T09:01:13;9.95;;;4.68;;
47760;SDS011;33524;55.434;38.520;2023-02-28T09:03:45;5.28;;;3.80;;
47760;SDS011;33524;55.434;38.520;2023-02-28T09:06:17;9.38;;;5.45;;
47760;SDS011;33524;55.434;38.520;2023-02-28T09:08:48;9.00;;;4.03;;
47760;SDS011;33524;55.434;38.520;2023-02-28T09:11:18;7.57;;;4.12;;
47760;SDS011;33524;55.434;38.520;2023-02-28T09:17:22;6.72;;;2.67;;
47760;SDS011;33524;55.434;38.520;2023-02-28T09:19:57;6.78;;;3.70;;
47760;SDS011;33524;55.434;38.520;2023-02-28T09:22:35;7.03;;;3.65;;
47760;SDS011;33524;55.434;38.520;2023-02-28T09:25:07;5.28;;;3.58;;
47760;SDS011;33524;55.434;38.520;2023-02-28T09:27:42;5.35;;;3.25;;
47760;SDS011;33524;55.434;38.520;2023-02-28T09:30:13;6.28;;;3.97;;
47760;SDS011;33524;55.434;38.520;2023-02-28T09:32:44;7.25;;;3.58;;
47760;SDS011;33524;55.434;38.520;2023-02-28T09:35:21;6.05;;;3.45;;
47760;SDS011;33524;55.434;38.520;2023-02-28T09:37:52;6.12;;;2.87;;
47760;SDS011;33524;55.434;38.520;2023-02-28T09:40:23;4.80;;;3.08;;
47760;SDS011;33524;55.434;38.520;2023-02-28T09:42:55;8.70;;;3.55;;
47760;SDS011;33524;55.434;38.520;2023-02-28T09:45:28;5.97;;;3.30;;
47760;SDS011;33524;55.434;38.520;2023-02-28T09:48:12;5.72;;;3.58;;
47760;SDS011;33524;55.434;38.520;2023-02-28T09:50:48;7.15;;;3.53;;
47760;SDS011;33524;55.434;38.520;2023-02-28T09:53:26;6.20;;;3.00;;
47760;SDS011;33524;55.434;38.520;2023-02-28T09:56:07;5.55;;;3.40;;
47760;SDS011;33524;55.434;38.520;2023-02-28T09:58:42;6.03;;;3.08;;
47760;SDS011;33524;55.434;38.520;2023-02-28T10:02:39;6.15;;;3.35;;
47760;SDS011;33524;55.434;38.520;2023-02-28T10:06:53;7.07;;;3.67;;
47760;SDS011;33524;55.434;38.520;2023-02-28T10:09:25;5.93;;;3.42;;
47760;SDS011;33524;55.434;38.520;2023-02-28T10:12:01;6.68;;;3.72;;
47760;SDS011;33524;55.434;38.520;2023-02-28T10:14:34;5.47;;;3.53;;
47760;SDS011;33524;55.434;38.520;2023-02-28T10:17:10;4.55;;;3.22;;
47760;SDS011;33524;55.434;38.520;2023-02-28T10:19:51;6.05;;;3.53;;
47760;SDS011;33524;55.434;38.520;2023-02-28T10:25:18;5.82;;;2.83;;
47760;SDS011;33524;55.434;38.520;2023-02-28T10:27:53;7.22;;;4.10;;
47760;SDS011;33524;55.434;38.520;2023-02-28T10:30:47;7.22;;;4.10;;
47760;SDS011;33524;55.434;38.520;2023-02-28T10:33:34;5.47;;;3.22;;
47760;SDS011;33524;55.434;38.520;2023-02-28T10:36:05;6.90;;;3.62;;
47760;SDS011;33524;55.434;38.520;2023-02-28T10:38:36;6.10;;;3.72;;
47760;SDS011;33524;55.434;38.520;2023-02-28T10:41:12;5.47;;;3.35;;
47760;SDS011;33524;55.434;38.520;2023-02-28T10:43:45;5.93;;;3.55;;
47760;SDS011;33524;55.434;38.520;2023-02-28T10:46:15;3.95;;;2.37;;
47760;SDS011;33524;55.434;38.520;2023-02-28T10:49:03;4.93;;;2.60;;
47760;SDS011;33524;55.434;38.520;2023-02-28T10:51:42;6.35;;;3.15;;
47760;SDS011;33524;55.434;38.520;2023-02-28T10:54:16;3.97;;;2.90;;
47760;SDS011;33524;55.434;38.520;2023-02-28T10:57:22;4.65;;;2.62;;
47760;SDS011;33524;55.434;38.520;2023-02-28T10:59:52;6.28;;;3.42;;
47760;SDS011;33524;55.434;38.520;2023-02-28T11:02:35;5.43;;;3.37;;
47760;SDS011;33524;55.434;38.520;2023-02-28T11:05:46;8.98;;;3.47;;
47760;SDS011;33524;55.434;38.520;2023-02-28T11:08:04;6.28;;;3.55;;
47760;SDS011;33524;55.434;38.520;2023-02-28T11:10:46;4.30;;;2.00;;
47760;SDS011;33524;55.434;38.520;2023-02-28T11:13:25;3.72;;;2.65;;
47760;SDS011;33524;55.434;38.520;2023-02-28T11:15:59;6.00;;;3.92;;
47760;SDS011;33524;55.434;38.520;2023-02-28T11:18:39;5.03;;;2.87;;
47760;SDS011;33524;55.434;38.520;2023-02-28T11:21:16;5.75;;;3.10;;
47760;SDS011;33524;55.434;38.520;2023-02-28T11:23:51;6.22;;;3.08;;
47760;SDS011;33524;55.434;38.520;2023-02-28T11:26:56;4.30;;;3.10;;
47760;SDS011;33524;55.434;38.520;2023-02-28T11:32:27;4.80;;;2.95;;
47760;SDS011;33524;55.434;38.520;2023-02-28T11:40:18;5.80;;;3.40;;
47760;SDS011;33524;55.434;38.520;2023-02-28T11:43:01;4.05;;;2.58;;
47760;SDS011;33524;55.434;38.520;2023-02-28T11:48:45;6.32;;;3.85;;
47760;SDS011;33524;55.434;38.520;2023-02-28T11:51:28;4.93;;;3.15;;
47760;SDS011;33524;55.434;38.520;2023-02-28T11:56:43;6.72;;;4.12;;
47760;SDS011;33524;55.434;38.520;2023-02-28T12:07:44;5.28;;;3.28;;
47760;SDS011;33524;55.434;38.520;2023-02-28T12:19:23;6.37;;;3.60;;
47760;SDS011;33524;55.434;38.520;2023-02-28T12:24:10;4.72;;;2.92;;
47760;SDS011;33524;55.434;38.520;2023-02-28T12:26:59;5.78;;;3.55;;
47760;SDS011;33524;55.434;38.520;2023-02-28T12:29:42;4.32;;;2.67;;
47760;SDS011;33524;55.434;38.520;2023-02-28T12:32:35;7.72;;;4.25;;
47760;SDS011;33524;55.434;38.520;2023-02-28T12:35:12;5.35;;;3.58;;
47760;SDS011;33524;55.434;38.520;2023-02-28T12:37:48;6.82;;;4.07;;
47760;SDS011;33524;55.434;38.520;2023-02-28T12:40:27;6.32;;;3.42;;
47760;SDS011;33524;55.434;38.520;2023-02-28T12:43:09;7.07;;;3.22;;
47760;SDS011;33524;55.434;38.520;2023-02-28T12:48:40;9.15;;;3.83;;
47760;SDS011;33524;55.434;38.520;2023-02-28T12:51:14;5.87;;;3.35;;
47760;SDS011;33524;55.434;38.520;2023-02-28T12:54:52;3.80;;;3.10;;
47760;SDS011;33524;55.434;38.520;2023-02-28T12:56:53;6.30;;;3.30;;
47760;SDS011;33524;55.434;38.520;2023-02-28T12:59:42;6.00;;;3.67;;
47760;SDS011;33524;55.434;38.520;2023-02-28T13:05:27;5.03;;;2.53;;
47760;SDS011;33524;55.434;38.520;2023-02-28T13:10:57;5.80;;;3.00;;
47760;SDS011;33524;55.434;38.520;2023-02-28T13:13:29;6.55;;;3.72;;
47760;SDS011;33524;55.434;38.520;2023-02-28T13:16:05;6.70;;;3.00;;
47760;SDS011;33524;55.434;38.520;2023-02-28T13:18:38;6.82;;;3.85;;
47760;SDS011;33524;55.434;38.520;2023-02-28T13:21:28;5.82;;;4.15;;
47760;SDS011;33524;55.434;38.520;2023-02-28T13:24:01;7.15;;;4.57;;
47760;SDS011;33524;55.434;38.520;2023-02-28T13:34:39;6.10;;;3.72;;
47760;SDS011;33524;55.434;38.520;2023-02-28T13:37:35;6.72;;;3.72;;
47760;SDS011;33524;55.434;38.520;2023-02-28T13:42:47;6.00;;;3.80;;
47760;SDS011;33524;55.434;38.520;2023-02-28T13:45:20;5.40;;;3.28;;
47760;SDS011;33524;55.434;38.520;2023-02-28T13:47:53;6.80;;;4.60;;
47760;SDS011;33524;55.434;38.520;2023-02-28T13:50:27;4.40;;;3.08;;
47760;SDS011;33524;55.434;38.520;2023-02-28T13:53:17;5.35;;;3.17;;
47760;SDS011;33524;55.434;38.520;2023-02-28T13:56:09;4.93;;;2.93;;
47760;SDS011;33524;55.434;38.520;2023-02-28T13:59:26;5.40;;;2.70;;
47760;SDS011;33524;55.434;38.520;2023-02-28T14:02:16;4.53;;;3.72;;
47760;SDS011;33524;55.434;38.520;2023-02-28T14:04:58;5.62;;;3.50;;
47760;SDS011;33524;55.434;38.520;2023-02-28T14:07:38;5.75;;;4.18;;
47760;SDS011;33524;55.434;38.520;2023-02-28T14:13:03;3.62;;;3.10;;
47760;SDS011;33524;55.434;38.520;2023-02-28T14:15:55;7.22;;;4.10;;
47760;SDS011;33524;55.434;38.520;2023-02-28T14:18:32;4.25;;;2.78;;
47760;SDS011;33524;55.434;38.520;2023-02-28T14:21:09;6.20;;;3.90;;
47760;SDS011;33524;55.434;38.520;2023-02-28T14:23:48;4.95;;;3.10;;
47760;SDS011;33524;55.434;38.520;2023-02-28T14:27:37;5.90;;;3.87;;
47760;SDS011;33524;55.434;38.520;2023-02-28T14:38:04;5.75;;;3.55;;
47760;SDS011;33524;55.434;38.520;2023-02-28T14:40:54;4.82;;;3.33;;
47760;SDS011;33524;55.434;38.520;2023-02-28T14:43:29;5.55;;;4.28;;
47760;SDS011;33524;55.434;38.520;2023-02-28T14:46:00;5.82;;;2.87;;
47760;SDS011;33524;55.434;38.520;2023-02-28T14:48:34;5.68;;;3.28;;
47760;SDS011;33524;55.434;38.520;2023-02-28T14:51:06;5.55;;;3.65;;
47760;SDS011;33524;55.434;38.520;2023-02-28T14:53:40;4.82;;;3.30;;
47760;SDS011;33524;55.434;38.520;2023-02-28T14:56:18;6.87;;;3.50;;
47760;SDS011;33524;55.434;38.520;2023-02-28T14:58:56;7.78;;;3.97;;
47760;SDS011;33524;55.434;38.520;2023-02-28T15:01:26;6.65;;;3.67;;
47760;SDS011;33524;55.434;38.520;2023-02-28T15:03:58;7.68;;;3.83;;
47760;SDS011;33524;55.434;38.520;2023-02-28T15:06:33;5.75;;;3.15;;
47760;SDS011;33524;55.434;38.520;2023-02-28T15:09:07;3.65;;;2.87;;
47760;SDS011;33524;55.434;38.520;2023-02-28T15:11:38;6.65;;;3.35;;
47760;SDS011;33524;55.434;38.520;2023-02-28T15:14:14;4.47;;;3.20;;
47760;SDS011;33524;55.434;38.520;2023-02-28T15:16:50;4.32;;;2.78;;
47760;SDS011;33524;55.434;38.520;2023-02-28T15:19:29;4.35;;;3.28;;
47760;SDS011;33524;55.434;38.520;2023-02-28T15:22:04;5.18;;;2.72;;
47760;SDS011;33524;55.434;38.520;2023-02-28T15:27:13;8.82;;;3.35;;
47760;SDS011;33524;55.434;38.520;2023-02-28T15:29:51;5.68;;;3.40;;
47760;SDS011;33524;55.434;38.520;2023-02-28T15:32:27;5.82;;;3.25;;
47760;SDS011;33524;55.434;38.520;2023-02-28T15:35:24;6.05;;;3.25;;
47760;SDS011;33524;55.434;38.520;2023-02-28T15:37:55;5.82;;;3.15;;
47760;SDS011;33524;55.434;38.520;2023-02-28T15:40:36;6.00;;;3.15;;
47760;SDS011;33524;55.434;38.520;2023-02-28T15:43:18;7.05;;;3.47;;
47760;SDS011;33524;55.434;38.520;2023-02-28T15:46:08;5.30;;;3.78;;
47760;SDS011;33524;55.434;38.520;2023-02-28T15:48:57;6.85;;;4.22;;
47760;SDS011;33524;55.434;38.520;2023-02-28T15:51:30;5.90;;;4.12;;
47760;SDS011;33524;55.434;38.520;2023-02-28T15:54:07;5.95;;;3.35;;
47760;SDS011;33524;55.434;38.520;2023-02-28T15:56:44;5.82;;;4.00;;
47760;SDS011;33524;55.434;38.520;2023-02-28T15:59:18;4.75;;;2.90;;
47760;SDS011;33524;55.434;38.520;2023-02-28T16:02:08;6.32;;;3.90;;
47760;SDS011;33524;55.434;38.520;2023-02-28T16:04:54;4.05;;;3.30;;
47760;SDS011;33524;55.434;38.520;2023-02-28T16:07:27;5.97;;;3.80;;
47760;SDS011;33524;55.434;38.520;2023-02-28T16:09:58;15.30;;;5.20;;
47760;SDS011;33524;55.434;38.520;2023-02-28T16:12:30;5.90;;;3.72;;
47760;SDS011;33524;55.434;38.520;2023-02-28T16:15:06;5.03;;;3.35;;
47760;SDS011;33524;55.434;38.520;2023-02-28T16:17:49;7.40;;;4.15;;
47760;SDS011;33524;55.434;38.520;2023-02-28T16:22:56;8.32;;;5.25;;
47760;SDS011;33524;55.434;38.520;2023-02-28T16:25:36;6.65;;;3.53;;
47760;SDS011;33524;55.434;38.520;2023-02-28T16:28:18;5.50;;;3.30;;
47760;SDS011;33524;55.434;38.520;2023-02-28T16:30:53;7.05;;;4.12;;
47760;SDS011;33524;55.434;38.520;2023-02-28T16:33:25;4.97;;;3.12;;
47760;SDS011;33524;55.434;38.520;2023-02-28T16:35:57;6.68;;;4.40;;
47760;SDS011;33524;55.434;38.520;2023-02-28T16:38:28;6.57;;;4.30;;
47760;SDS011;33524;55.434;38.520;2023-02-28T16:41:02;5.70;;;3.25;;
47760;SDS011;33524;55.434;38.520;2023-02-28T16:43:32;5.93;;;3.12;;
47760;SDS011;33524;55.434;38.520;2023-02-28T16:46:03;6.57;;;4.12;;
47760;SDS011;33524;55.434;38.520;2023-02-28T16:48:37;8.73;;;4.35;;
47760;SDS011;33524;55.434;38.520;2023-02-28T16:51:12;6.57;;;4.05;;